Time;durP1;ratioP1;P1;durP2;ratioP2;P2;SDS_P1;SDS_P2;PMS_P1;PMS_P2;Temp;Humidity;BMP_temperature;BMP_pressure;BME280_temperature;BME280_humidity;BME280_pressure;Samples;Min_cycle;Max_cycle;Signal;HPM_P1;HPM_P2
2022/03/09 00:02:14;;;;;;;3.97;3.05;;;-1.90;71.20;;;;;;4939119;29;20048;-74
2022/03/09 00:04:41;;;;;;;3.42;2.83;;;-2.00;71.80;;;;;;4939065;29;20135;-74
2022/03/09 00:07:07;;;;;;;3.30;3.00;;;-2.00;72.00;;;;;;4939424;29;20367;-74
2022/03/09 00:09:34;;;;;;;3.55;2.58;;;-2.00;72.00;;;;;;4939112;29;20346;-74
2022/03/09 00:12:02;;;;;;;3.20;2.85;;;-2.10;71.50;;;;;;4938851;29;20032;-77
2022/03/09 00:14:29;;;;;;;4.15;2.78;;;-2.10;71.90;;;;;;4949833;29;20027;-73
2022/03/09 00:16:55;;;;;;;2.83;2.30;;;-2.20;72.00;;;;;;4947518;29;20036;-74
2022/03/09 00:19:21;;;;;;;3.33;3.03;;;-2.20;72.60;;;;;;4939032;29;20377;-74
2022/03/09 00:21:48;;;;;;;2.80;1.95;;;-2.20;72.90;;;;;;4939012;29;20501;-73
2022/03/09 00:24:14;;;;;;;3.42;2.72;;;-2.30;72.80;;;;;;4938718;29;20058;-71
2022/03/09 00:26:41;;;;;;;4.38;2.78;;;-2.30;72.90;;;;;;4938938;29;20031;-74
2022/03/09 00:29:10;;;;;;;3.28;2.60;;;-2.40;72.70;;;;;;4938372;29;20477;-74
2022/03/09 00:31:36;;;;;;;4.18;2.83;;;-2.50;73.20;;;;;;4938714;29;20035;-74
2022/03/09 00:34:02;;;;;;;5.07;2.83;;;-2.50;73.70;;;;;;4933968;29;20032;-74
2022/03/09 00:36:28;;;;;;;3.08;2.17;;;-2.60;73.50;;;;;;4938830;29;20031;-73
2022/03/09 00:38:56;;;;;;;3.90;2.63;;;-2.70;73.50;;;;;;4938775;29;20043;-74
2022/03/09 00:41:22;;;;;;;4.97;3.60;;;-2.60;72.70;;;;;;4938429;29;20369;-74
2022/03/09 00:43:48;;;;;;;3.67;2.78;;;-2.50;72.00;;;;;;4905669;29;20047;-73
2022/03/09 00:46:15;;;;;;;9.10;5.00;;;-2.40;71.90;;;;;;4938467;29;20032;-74
2022/03/09 00:48:41;;;;;;;5.50;3.80;;;-2.40;71.10;;;;;;4938153;29;20039;-74
2022/03/09 00:51:08;;;;;;;4.43;4.03;;;-2.40;71.00;;;;;;4938432;29;20132;-74
2022/03/09 00:53:34;;;;;;;6.35;3.40;;;-2.40;71.10;;;;;;4938378;29;20455;-74
2022/03/09 00:56:00;;;;;;;5.30;2.67;;;-2.30;70.70;;;;;;4921456;29;20691;-72
2022/03/09 00:58:26;;;;;;;3.00;2.35;;;-2.40;70.90;;;;;;4921761;29;20054;-73
2022/03/09 01:00:52;;;;;;;5.50;3.50;;;-2.50;71.50;;;;;;4920795;29;20059;-74
2022/03/09 01:03:18;;;;;;;5.90;2.75;;;-2.60;71.60;;;;;;4937281;29;20047;-73
2022/03/09 01:05:45;;;;;;;3.40;3.03;;;-2.50;71.60;;;;;;4938177;29;20048;-74
2022/03/09 01:08:12;;;;;;;4.22;3.33;;;-2.50;71.00;;;;;;4937865;29;20437;-74
2022/03/09 01:10:39;;;;;;;9.85;3.25;;;-2.50;70.00;;;;;;4936321;29;20047;-74
2022/03/09 01:13:06;;;;;;;3.45;3.15;;;-2.50;70.40;;;;;;4937285;29;20035;-75
2022/03/09 01:15:32;;;;;;;3.80;3.15;;;-2.30;71.20;;;;;;4937245;29;20059;-73
2022/03/09 01:17:58;;;;;;;8.23;4.25;;;-2.20;70.60;;;;;;4937135;29;20035;-74
2022/03/09 01:20:25;;;;;;;8.02;3.28;;;-2.20;70.30;;;;;;4937428;29;20157;-74
2022/03/09 01:22:52;;;;;;;4.15;3.28;;;-2.20;70.10;;;;;;4935704;29;20048;-74
2022/03/09 01:25:19;;;;;;;4.53;3.22;;;-2.20;69.50;;;;;;4918073;29;20044;-74
2022/03/09 01:27:45;;;;;;;3.67;3.28;;;-2.10;70.10;;;;;;4920721;29;20047;-74
2022/03/09 01:30:11;;;;;;;6.88;3.20;;;-2.20;70.10;;;;;;4936761;29;20044;-74
2022/03/09 01:32:37;;;;;;;4.85;3.38;;;-2.30;70.20;;;;;;4937224;29;20036;-74
2022/03/09 01:35:05;;;;;;;4.03;3.17;;;-2.40;70.70;;;;;;4937404;29;20377;-83
2022/03/09 01:37:31;;;;;;;3.95;3.55;;;-2.50;71.10;;;;;;4936523;29;20035;-74
2022/03/09 01:39:57;;;;;;;6.03;4.30;;;-2.60;71.70;;;;;;4937048;29;20481;-74
2022/03/09 01:42:24;;;;;;;3.00;2.58;;;-2.70;72.10;;;;;;4937053;29;20035;-74
2022/03/09 01:44:50;;;;;;;3.72;3.17;;;-2.70;72.20;;;;;;4936953;29;20031;-74
2022/03/09 01:47:16;;;;;;;4.45;3.08;;;-2.80;72.40;;;;;;4936775;29;20040;-74
2022/03/09 01:49:42;;;;;;;4.00;3.60;;;-2.80;72.60;;;;;;4937158;29;20039;-74
2022/03/09 01:52:08;;;;;;;3.50;3.13;;;-2.80;72.60;;;;;;4937144;29;20031;-74
2022/03/09 01:54:35;;;;;;;3.53;3.20;;;-2.70;72.60;;;;;;4937084;29;20043;-74
2022/03/09 01:57:03;;;;;;;3.90;3.13;;;-2.80;71.80;;;;;;4937512;29;20036;-74
2022/03/09 01:59:29;;;;;;;5.18;3.67;;;-2.80;72.50;;;;;;4937176;29;20063;-77
2022/03/09 02:01:57;;;;;;;3.40;2.78;;;-2.90;72.20;;;;;;4936902;29;20039;-74
2022/03/09 02:04:24;;;;;;;4.93;4.15;;;-3.10;72.70;;;;;;4936688;29;20074;-74
2022/03/09 02:06:50;;;;;;;10.32;3.95;;;-3.10;73.50;;;;;;4934439;29;20067;-73
2022/03/09 02:12:02;;;;;;;7.13;3.83;;;-3.10;74.70;;;;;;4936258;29;20050;-74
2022/03/09 02:14:42;;;;;;;4.78;4.18;;;-3.10;75.10;;;;;;4936276;29;20039;-74
2022/03/09 02:17:13;;;;;;;4.13;3.13;;;-3.10;75.20;;;;;;4936377;29;20050;-74
2022/03/09 02:19:40;;;;;;;;;;;-3.20;75.10;;;;;;4936697;29;20047;-73
2022/03/09 02:22:35;;;;;;;4.57;2.75;;;-3.30;75.10;;;;;;4935680;29;19910;-74
2022/03/09 02:25:04;;;;;;;4.40;3.78;;;-3.30;75.80;;;;;;4930104;29;20070;-74
2022/03/09 02:27:31;;;;;;;9.50;4.43;;;-3.40;75.90;;;;;;4935951;29;20036;-74
2022/03/09 02:29:57;;;;;;;5.05;3.35;;;-3.40;76.60;;;;;;4936190;29;20035;-74
2022/03/09 02:32:24;;;;;;;6.25;4.13;;;-3.40;76.80;;;;;;4936350;29;20027;-74
2022/03/09 02:34:51;;;;;;;4.65;4.25;;;-3.40;76.60;;;;;;4936865;28;20040;-74
2022/03/09 02:37:17;;;;;;;6.07;3.67;;;-3.40;76.30;;;;;;4918687;29;20098;-74
2022/03/09 02:39:43;;;;;;;6.03;3.45;;;-3.40;76.40;;;;;;4935965;29;20038;-74
2022/03/09 02:42:10;;;;;;;7.60;4.28;;;-3.50;76.40;;;;;;4936135;29;20031;-74
2022/03/09 02:44:37;;;;;;;3.42;3.08;;;-3.50;76.20;;;;;;4936096;29;20058;-74
2022/03/09 02:47:04;;;;;;;6.10;2.95;;;-3.50;76.70;;;;;;4935937;29;20405;-77
2022/03/09 02:49:31;;;;;;;4.03;3.13;;;-3.50;76.50;;;;;;4951846;29;20036;-74
2022/03/09 02:51:58;;;;;;;8.25;3.88;;;-3.40;76.70;;;;;;4940521;29;20043;-74
2022/03/09 02:54:24;;;;;;;9.43;4.68;;;-3.60;77.00;;;;;;4934655;29;20051;-74
2022/03/09 02:56:50;;;;;;;4.55;3.65;;;-3.60;77.00;;;;;;4934785;29;20465;-74
2022/03/09 02:59:16;;;;;;;4.22;3.72;;;-3.60;77.50;;;;;;4935523;29;20061;-74
2022/03/09 03:01:42;;;;;;;5.25;3.88;;;-3.60;77.40;;;;;;4936010;29;20106;-74
2022/03/09 03:04:10;;;;;;;4.32;3.90;;;-3.70;77.30;;;;;;4934655;29;20406;-74
2022/03/09 03:06:37;;;;;;;5.10;4.03;;;-3.70;78.00;;;;;;4918989;29;20048;-74
2022/03/09 03:09:03;;;;;;;4.35;3.50;;;-3.70;78.00;;;;;;4936172;29;20039;-74
2022/03/09 03:11:29;;;;;;;5.95;4.45;;;-3.70;78.30;;;;;;4935503;29;20035;-73
2022/03/09 03:13:55;;;;;;;8.23;4.25;;;-3.70;78.70;;;;;;4935690;29;20504;-74
2022/03/09 03:16:21;;;;;;;4.32;3.40;;;-3.70;78.70;;;;;;4933356;29;20477;-74
2022/03/09 03:18:48;;;;;;;5.32;3.35;;;-3.80;78.80;;;;;;4935643;29;20058;-74
2022/03/09 03:21:14;;;;;;;6.63;3.95;;;-3.80;79.70;;;;;;4918178;29;20059;-74
2022/03/09 03:23:40;;;;;;;3.85;2.72;;;-3.80;79.30;;;;;;4935510;29;20036;-74
2022/03/09 03:26:06;;;;;;;5.80;4.72;;;-3.80;79.50;;;;;;4935268;29;20043;-83
2022/03/09 03:28:33;;;;;;;4.32;3.60;;;-3.80;79.80;;;;;;4935090;29;20042;-74
2022/03/09 03:30:59;;;;;;;4.25;3.20;;;-3.80;80.60;;;;;;4936050;28;20051;-74
2022/03/09 03:33:25;;;;;;;3.88;3.50;;;-3.80;80.10;;;;;;4935581;29;20066;-73
2022/03/09 03:35:52;;;;;;;6.68;5.28;;;-3.90;80.50;;;;;;4926499;29;20032;-74
2022/03/09 03:38:18;;;;;;;3.50;2.78;;;-4.00;81.20;;;;;;4938444;29;20047;-74
2022/03/09 03:40:45;;;;;;;7.78;5.15;;;-4.00;81.70;;;;;;4939478;29;20039;-74
2022/03/09 03:43:12;;;;;;;3.40;3.10;;;-4.10;82.00;;;;;;4939221;29;20501;-74
2022/03/09 03:45:38;;;;;;;4.45;3.80;;;-4.10;82.90;;;;;;4938659;29;20527;-74
2022/03/09 03:48:05;;;;;;;3.45;3.10;;;-4.20;83.70;;;;;;4940261;29;20051;-80
2022/03/09 03:50:31;;;;;;;8.30;5.22;;;-4.10;83.90;;;;;;4940316;29;20047;-73
2022/03/09 03:52:57;;;;;;;3.63;3.13;;;-4.10;83.60;;;;;;4937995;29;20051;-74
2022/03/09 03:55:23;;;;;;;4.50;3.55;;;-4.00;83.80;;;;;;4938594;29;20047;-74
2022/03/09 03:57:50;;;;;;;6.82;5.13;;;-4.10;83.80;;;;;;4938839;29;20484;-74
2022/03/09 04:00:16;;;;;;;12.55;5.35;;;-4.20;84.60;;;;;;4921876;29;20150;-74
2022/03/09 04:02:42;;;;;;;5.18;4.22;;;-4.10;85.50;;;;;;4938853;29;20417;-74
2022/03/09 04:05:09;;;;;;;5.30;4.60;;;-4.30;85.20;;;;;;4938661;29;20040;-74
2022/03/09 04:07:35;;;;;;;13.57;5.55;;;-4.30;86.10;;;;;;4937801;29;20063;-74
2022/03/09 04:10:03;;;;;;;8.57;4.68;;;-4.20;86.60;;;;;;4938874;29;20492;-74
2022/03/09 04:12:29;;;;;;;5.40;4.25;;;-4.20;86.50;;;;;;4938555;29;20024;-74
2022/03/09 04:14:56;;;;;;;5.00;4.20;;;-4.20;86.70;;;;;;4938989;29;20390;-74
2022/03/09 04:17:22;;;;;;;5.95;4.72;;;-4.30;86.60;;;;;;4938723;29;20046;-74
2022/03/09 04:19:49;;;;;;;6.85;5.07;;;-4.40;87.70;;;;;;4936556;29;20413;-74
2022/03/09 04:22:15;;;;;;;5.97;5.05;;;-4.30;88.90;;;;;;4921028;29;20039;-74
2022/03/09 04:24:41;;;;;;;12.13;6.28;;;-4.40;88.80;;;;;;4938414;29;20028;-74
2022/03/09 04:27:08;;;;;;;8.43;6.25;;;-4.20;90.60;;;;;;4938083;29;20024;-78
2022/03/09 04:29:34;;;;;;;7.75;5.10;;;-4.10;90.60;;;;;;4938138;29;20024;-74
2022/03/09 04:32:00;;;;;;;6.25;4.78;;;-4.20;89.70;;;;;;4938118;29;20035;-78
2022/03/09 04:34:27;;;;;;;5.03;4.47;;;-4.30;90.00;;;;;;4937915;29;20055;-74
2022/03/09 04:36:53;;;;;;;8.05;5.88;;;-4.20;90.50;;;;;;4938014;29;20046;-75
2022/03/09 04:39:19;;;;;;;7.82;4.63;;;-4.20;90.60;;;;;;4936885;29;20039;-74
2022/03/09 04:41:46;;;;;;;5.68;5.07;;;-4.20;91.30;;;;;;4938278;29;20036;-74
2022/03/09 04:44:12;;;;;;;8.63;3.97;;;-4.20;91.30;;;;;;4938212;29;20035;-74
2022/03/09 04:46:38;;;;;;;16.13;4.95;;;-4.20;91.20;;;;;;4938498;29;20491;-74
2022/03/09 04:49:04;;;;;;;7.20;5.53;;;-4.10;91.70;;;;;;4938505;29;20070;-73
2022/03/09 04:51:30;;;;;;;5.60;4.75;;;-4.30;91.30;;;;;;4937994;29;20043;-74
2022/03/09 04:53:56;;;;;;;5.55;4.68;;;-4.30;91.80;;;;;;4938061;29;20031;-74
2022/03/09 04:56:23;;;;;;;6.93;4.82;;;-4.20;91.80;;;;;;4937727;29;20032;-74
2022/03/09 04:58:49;;;;;;;8.43;5.10;;;-4.20;91.80;;;;;;4937925;29;20039;-74
2022/03/09 05:01:16;;;;;;;7.75;4.13;;;-4.40;91.90;;;;;;4938195;29;20039;-74
2022/03/09 05:03:42;;;;;;;5.22;4.72;;;-4.40;92.50;;;;;;4937994;29;20040;-74
2022/03/09 05:06:08;;;;;;;4.65;4.25;;;-4.50;92.60;;;;;;4942060;29;20059;-73
2022/03/09 05:08:39;;;;;;;13.25;6.15;;;-4.50;93.10;;;;;;4936595;29;20044;-74
2022/03/09 05:11:05;;;;;;;4.95;4.50;;;-4.60;93.50;;;;;;4936724;29;20032;-77
2022/03/09 05:13:31;;;;;;;6.15;4.90;;;-4.50;94.00;;;;;;4935339;29;20031;-71
2022/03/09 05:15:58;;;;;;;6.72;5.07;;;-4.40;93.80;;;;;;4933644;29;20040;-75
2022/03/09 05:18:24;;;;;;;10.23;4.95;;;-4.50;93.80;;;;;;4934226;29;20611;-72
2022/03/09 05:20:50;;;;;;;8.90;5.95;;;-4.50;94.40;;;;;;4933356;29;20047;-72
2022/03/09 05:23:16;;;;;;;5.70;5.20;;;-4.50;94.00;;;;;;4930775;29;20401;-72
2022/03/09 05:25:42;;;;;;;6.40;5.10;;;-4.40;94.10;;;;;;4934732;29;20040;-72
2022/03/09 05:28:08;;;;;;;5.95;5.35;;;-4.40;93.80;;;;;;4933699;29;20059;-72
2022/03/09 05:30:35;;;;;;;6.18;5.57;;;-4.50;95.10;;;;;;4934097;29;20035;-72
2022/03/09 05:33:01;;;;;;;7.15;5.45;;;-4.40;95.00;;;;;;4935684;29;20058;-72
2022/03/09 05:35:27;;;;;;;7.32;5.82;;;-4.50;94.30;;;;;;4932738;29;20036;-74
2022/03/09 05:37:53;;;;;;;8.75;7.07;;;-4.60;94.40;;;;;;4931316;29;20465;-72
2022/03/09 05:40:19;;;;;;;8.52;6.03;;;-4.60;95.30;;;;;;4934422;29;20039;-71
2022/03/09 05:42:46;;;;;;;6.82;6.22;;;-4.60;95.10;;;;;;4935470;29;20031;-72
2022/03/09 05:45:12;;;;;;;5.78;5.18;;;-4.60;95.80;;;;;;4928034;29;20035;-72
2022/03/09 05:47:38;;;;;;;14.02;8.85;;;-4.70;96.50;;;;;;4935240;29;20494;-72
2022/03/09 05:50:05;;;;;;;7.55;6.65;;;-4.70;96.80;;;;;;4935491;29;20036;-77
2022/03/09 05:52:32;;;;;;;8.10;6.40;;;-4.60;96.90;;;;;;4918585;29;20048;-71
2022/03/09 05:54:58;;;;;;;9.48;7.60;;;-4.50;96.50;;;;;;4930362;29;20040;-71
2022/03/09 05:57:25;;;;;;;8.25;7.45;;;-4.60;96.80;;;;;;4933931;29;20627;-71
2022/03/09 05:59:51;;;;;;;7.80;6.43;;;-4.60;96.30;;;;;;4933991;29;20055;-71
2022/03/09 06:02:17;;;;;;;16.30;7.43;;;-4.60;96.50;;;;;;4930963;29;20377;-71
2022/03/09 06:04:45;;;;;;;8.05;6.88;;;-4.60;96.30;;;;;;4928429;29;20036;-72
2022/03/09 06:07:11;;;;;;;23.73;8.88;;;-4.60;96.30;;;;;;4933361;29;20113;-71
2022/03/09 06:09:38;;;;;;;9.05;7.00;;;-4.70;96.60;;;;;;4934238;29;20268;-71
2022/03/09 06:12:04;;;;;;;8.00;5.95;;;-4.60;97.00;;;;;;4935122;29;20036;-76
2022/03/09 06:14:30;;;;;;;8.85;5.40;;;-4.50;96.80;;;;;;4934805;29;20031;-72
2022/03/09 06:16:57;;;;;;;6.63;5.60;;;-4.40;96.60;;;;;;4933209;29;20036;-72
2022/03/09 06:19:23;;;;;;;6.10;5.50;;;-4.30;96.20;;;;;;4916815;29;20048;-71
2022/03/09 06:21:49;;;;;;;13.75;7.97;;;-4.30;95.80;;;;;;4934407;29;20047;-71
2022/03/09 06:24:17;;;;;;;10.25;7.68;;;-4.20;95.30;;;;;;4934406;29;20047;-71
2022/03/09 06:26:45;;;;;;;8.18;7.10;;;-4.20;95.20;;;;;;4933282;29;20495;-73
2022/03/09 06:29:11;;;;;;;10.73;8.38;;;-4.10;94.90;;;;;;4931526;29;20046;-71
2022/03/09 06:31:38;;;;;;;13.93;9.75;;;-4.10;94.90;;;;;;4931140;29;20047;-72
2022/03/09 06:34:05;;;;;;;26.90;11.07;;;-4.00;95.10;;;;;;4914183;29;20032;-78
2022/03/09 06:36:31;;;;;;;18.67;9.30;;;-4.00;95.20;;;;;;4928528;29;20484;-71
2022/03/09 06:38:57;;;;;;;10.32;8.23;;;-3.90;95.20;;;;;;4928713;29;20035;-72
2022/03/09 06:41:23;;;;;;;8.93;6.75;;;-3.50;95.70;;;;;;4929510;29;20046;-72
2022/03/09 06:43:50;;;;;;;14.23;8.23;;;-2.00;92.50;;;;;;4930198;29;20040;-73
2022/03/09 06:46:16;;;;;;;7.30;5.68;;;-0.70;84.50;;;;;;4930230;29;20040;-71
2022/03/09 06:48:43;;;;;;;7.70;5.85;;;1.00;76.90;;;;;;4930375;29;20035;-71
2022/03/09 06:51:09;;;;;;;14.30;12.90;;;1.50;71.10;;;;;;4931614;29;20035;-73
2022/03/09 06:53:35;;;;;;;22.98;10.95;;;2.80;66.30;;;;;;4934557;29;20027;-73
2022/03/09 06:56:02;;;;;;;10.00;9.00;;;3.60;63.70;;;;;;4928925;29;20046;-76
2022/03/09 06:58:29;;;;;;;19.05;9.85;;;4.90;59.00;;;;;;4933735;29;20408;-76
2022/03/09 07:00:57;;;;;;;12.82;7.18;;;5.60;55.00;;;;;;4933971;29;20058;-76
2022/03/09 07:03:23;;;;;;;15.50;7.53;;;5.10;55.30;;;;;;4929986;29;20032;-76
2022/03/09 07:05:52;;;;;;;24.58;10.73;;;6.00;53.60;;;;;;4929610;29;20040;-74
2022/03/09 07:08:18;;;;;;;9.10;7.68;;;5.50;53.70;;;;;;4933735;29;20039;-77
2022/03/09 07:10:46;;;;;;;8.10;6.78;;;4.50;55.30;;;;;;4934551;29;20402;-76
2022/03/09 07:13:12;;;;;;;40.63;14.18;;;4.70;55.80;;;;;;4926612;29;20051;-76
2022/03/09 07:15:38;;;;;;;50.67;14.32;;;4.90;55.40;;;;;;4929618;29;20066;-76
2022/03/09 07:18:04;;;;;;;18.48;9.43;;;5.90;52.70;;;;;;4934262;29;20051;-77
2022/03/09 07:20:31;;;;;;;19.33;7.40;;;6.60;51.40;;;;;;4933586;29;20036;-76
2022/03/09 07:22:57;;;;;;;10.35;6.35;;;6.30;51.80;;;;;;4931814;29;20047;-76
2022/03/09 07:25:24;;;;;;;13.48;7.50;;;5.40;52.80;;;;;;4933167;29;20050;-73
2022/03/09 07:27:52;;;;;;;10.07;7.28;;;4.30;55.50;;;;;;4934723;29;20039;-76
2022/03/09 07:30:18;;;;;;;7.60;6.70;;;5.40;53.90;;;;;;4930055;29;20032;-73
2022/03/09 07:32:44;;;;;;;10.77;6.70;;;6.20;51.80;;;;;;4926700;29;20047;-73
2022/03/09 07:35:11;;;;;;;9.38;6.63;;;5.60;52.10;;;;;;4932318;29;20458;-73
2022/03/09 07:37:37;;;;;;;9.65;7.28;;;4.70;52.80;;;;;;4934012;29;20035;-74
2022/03/09 07:40:08;;;;;;;10.05;6.80;;;4.90;54.20;;;;;;4933339;29;20040;-75
2022/03/09 07:42:35;;;;;;;11.00;7.43;;;5.10;52.90;;;;;;4929675;29;20043;-74
2022/03/09 07:45:03;;;;;;;9.35;7.20;;;4.90;53.80;;;;;;4932033;29;20036;-74
2022/03/09 07:47:29;;;;;;;20.70;8.57;;;4.80;53.20;;;;;;4932635;29;20048;-74
2022/03/09 07:49:56;;;;;;;13.23;8.32;;;4.30;54.90;;;;;;4933990;29;20039;-74
2022/03/09 07:52:22;;;;;;;8.30;7.05;;;4.00;56.10;;;;;;4928981;29;20027;-74
2022/03/09 07:54:49;;;;;;;14.48;10.00;;;3.70;56.80;;;;;;4931415;29;20441;-75
2022/03/09 07:57:15;;;;;;;8.48;6.15;;;3.70;57.10;;;;;;4933666;29;20035;-74
2022/03/09 07:59:41;;;;;;;12.63;7.85;;;3.70;57.10;;;;;;4931388;29;20500;-74
2022/03/09 08:02:07;;;;;;;11.48;8.07;;;3.90;56.80;;;;;;4934600;29;20047;-77
2022/03/09 08:04:34;;;;;;;25.10;12.35;;;4.40;56.80;;;;;;4936229;29;20034;-74
2022/03/09 08:07:00;;;;;;;9.35;7.03;;;4.90;55.20;;;;;;4929809;29;20474;-74
2022/03/09 08:09:27;;;;;;;11.38;7.60;;;4.80;55.50;;;;;;4929205;29;20601;-74
2022/03/09 08:11:53;;;;;;;11.73;6.97;;;5.20;54.50;;;;;;4933946;29;20474;-73
2022/03/09 08:14:19;;;;;;;12.05;8.05;;;4.90;54.50;;;;;;4932896;29;20036;-74
2022/03/09 08:16:47;;;;;;;10.40;7.60;;;5.20;53.60;;;;;;4932330;29;20036;-75
2022/03/09 08:19:13;;;;;;;8.90;6.72;;;6.10;52.70;;;;;;4933153;29;20059;-74
2022/03/09 08:21:39;;;;;;;7.93;6.60;;;6.30;51.50;;;;;;4937527;29;20399;-74
2022/03/09 08:24:06;;;;;;;9.35;7.18;;;6.50;51.50;;;;;;4936090;29;20039;-74
2022/03/09 08:26:32;;;;;;;13.57;7.65;;;6.80;51.20;;;;;;4932424;29;20034;-75
2022/03/09 08:28:59;;;;;;;15.18;7.78;;;7.30;49.50;;;;;;4937189;29;20039;-74
2022/03/09 08:31:26;;;;;;;20.75;10.35;;;6.90;49.90;;;;;;4936716;29;20032;-74
2022/03/09 08:33:52;;;;;;;16.02;9.88;;;6.60;50.90;;;;;;4936181;29;20032;-74
2022/03/09 08:36:18;;;;;;;13.32;8.00;;;6.60;51.40;;;;;;4937369;29;20032;-76
2022/03/09 08:38:44;;;;;;;12.13;7.00;;;6.20;50.60;;;;;;4932469;29;20047;-75
2022/03/09 08:41:11;;;;;;;10.88;7.40;;;6.00;51.70;;;;;;4936205;29;20070;-75
2022/03/09 08:43:37;;;;;;;13.40;8.25;;;6.80;50.40;;;;;;4934716;29;20027;-76
2022/03/09 08:46:03;;;;;;;16.58;7.18;;;7.70;49.40;;;;;;4932683;29;20039;-76
2022/03/09 08:48:30;;;;;;;7.40;6.63;;;7.50;50.20;;;;;;4935861;29;20035;-76
2022/03/09 08:50:58;;;;;;;9.55;6.82;;;8.20;48.70;;;;;;4932881;29;20442;-76
2022/03/09 08:53:24;;;;;;;12.68;7.60;;;10.10;47.10;;;;;;4932206;29;20035;-75
2022/03/09 08:55:50;;;;;;;10.30;6.82;;;10.70;44.10;;;;;;4918959;29;20044;-75
2022/03/09 08:58:16;;;;;;;12.45;6.80;;;10.40;43.90;;;;;;4936649;29;20036;-75
2022/03/09 09:00:44;;;;;;;11.15;8.00;;;9.10;46.10;;;;;;4936975;28;20051;-74
2022/03/09 09:03:10;;;;;;;7.88;6.13;;;7.80;47.70;;;;;;4932871;29;20035;-75
2022/03/09 09:05:37;;;;;;;9.85;6.47;;;7.80;47.60;;;;;;4935426;29;20489;-74
2022/03/09 09:08:03;;;;;;;18.48;8.38;;;8.80;46.70;;;;;;4936582;29;20482;-75
2022/03/09 09:10:30;;;;;;;14.43;8.00;;;9.00;45.70;;;;;;4936571;29;20039;-75
2022/03/09 09:12:58;;;;;;;8.18;7.32;;;9.40;44.70;;;;;;4934970;29;20031;-75
2022/03/09 09:15:25;;;;;;;9.80;6.72;;;8.10;45.60;;;;;;4930797;29;20497;-74
2022/03/09 09:18:03;;;;;;;9.05;6.95;;;7.60;47.20;;;;;;4935372;29;20051;-74
2022/03/09 09:20:29;;;;;;;13.05;7.65;;;7.90;46.60;;;;;;4930505;29;20046;-74
2022/03/09 09:22:57;;;;;;;10.30;7.95;;;8.20;47.20;;;;;;4931752;29;20520;-74
2022/03/09 09:25:24;;;;;;;14.20;7.78;;;8.10;46.50;;;;;;4903192;29;20047;-73
2022/03/09 09:27:55;;;;;;;14.65;7.50;;;9.00;46.10;;;;;;4919485;29;20565;-73
2022/03/09 09:30:24;;;;;;;13.82;7.45;;;9.50;45.10;;;;;;4906031;29;20055;-74
2022/03/09 09:32:50;;;;;;;14.15;7.88;;;9.10;44.70;;;;;;4929476;29;20051;-74
2022/03/09 09:35:17;;;;;;;16.58;8.57;;;9.60;44.50;;;;;;4932889;29;20027;-74
2022/03/09 09:37:44;;;;;;;8.02;7.18;;;9.90;43.80;;;;;;4930430;29;20051;-75
2022/03/09 09:40:14;;;;;;;17.58;9.15;;;9.50;44.00;;;;;;4935381;29;20032;-74
2022/03/09 09:42:42;;;;;;;9.50;8.00;;;10.10;43.40;;;;;;4924041;29;20051;-74
2022/03/09 09:45:09;;;;;;;11.07;7.65;;;10.10;43.40;;;;;;4931184;29;20039;-73
2022/03/09 09:47:36;;;;;;;8.98;7.13;;;8.90;44.60;;;;;;4935955;29;20034;-74
2022/03/09 09:50:06;;;;;;;12.10;7.68;;;8.90;45.00;;;;;;4917069;29;20051;-74
2022/03/09 09:52:35;;;;;;;11.93;7.28;;;9.80;44.40;;;;;;4935333;29;20366;-73
2022/03/09 09:55:04;;;;;;;8.68;7.47;;;10.20;42.90;;;;;;4934250;29;20036;-74
2022/03/09 09:57:31;;;;;;;15.88;7.78;;;9.40;43.60;;;;;;4915445;29;20039;-73
2022/03/09 09:59:58;;;;;;;11.85;7.95;;;8.70;44.40;;;;;;4924745;29;20039;-73
2022/03/09 10:02:25;;;;;;;8.63;7.53;;;8.50;44.80;;;;;;4932146;29;20117;-73
2022/03/09 10:04:51;;;;;;;15.27;9.23;;;8.80;44.50;;;;;;4935107;29;20031;-73
2022/03/09 10:07:18;;;;;;;16.70;7.75;;;8.80;44.20;;;;;;4935183;29;20044;-73
2022/03/09 10:09:45;;;;;;;11.93;8.48;;;8.30;44.70;;;;;;4935498;29;20039;-73
2022/03/09 10:12:13;;;;;;;13.80;7.93;;;8.20;45.40;;;;;;4935075;29;20032;-74
2022/03/09 10:14:50;;;;;;;9.65;7.35;;;8.20;44.80;;;;;;4934960;29;20036;-73
2022/03/09 10:17:19;;;;;;;11.25;6.97;;;8.20;44.80;;;;;;4925918;29;20493;-73
2022/03/09 10:19:50;;;;;;;10.95;6.43;;;8.70;44.40;;;;;;4929904;29;20052;-74
2022/03/09 10:22:23;;;;;;;;;;;9.00;42.90;;;;;;4934138;29;20044;-73
2022/03/09 10:24:50;;;;;;;8.43;5.55;;;9.30;43.00;;;;;;4932606;29;20288;-73
2022/03/09 10:27:39;;;;;;;9.65;7.00;;;9.60;42.00;;;;;;4931019;29;20038;-73
2022/03/09 10:30:14;;;;;;;10.88;6.63;;;9.60;41.80;;;;;;4932397;29;20043;-74
2022/03/09 10:32:59;;;;;;;12.23;6.93;;;9.80;41.60;;;;;;4929270;29;20215;-74
2022/03/09 10:35:31;;;;;;;12.18;10.13;;;9.40;41.60;;;;;;4928867;29;20059;-73
2022/03/09 10:38:00;;;;;;;15.48;8.27;;;9.00;42.40;;;;;;4934981;29;20062;-73
2022/03/09 10:40:28;;;;;;;16.73;12.60;;;9.00;42.60;;;;;;4934712;29;20063;-72
2022/03/09 10:43:13;;;;;;;7.57;6.60;;;8.70;42.30;;;;;;4934257;29;20031;-74
2022/03/09 10:45:59;;;;;;;12.95;6.53;;;8.60;42.40;;;;;;4933893;29;20031;-73
2022/03/09 10:49:00;;;;;;;10.90;6.30;;;8.70;42.80;;;;;;4927173;29;20051;-74
2022/03/09 10:51:27;;;;;;;;;;;9.00;42.90;;;;;;4935136;29;20389;-74
2022/03/09 10:53:54;;;;;;;7.70;5.90;;;9.00;42.00;;;;;;4934803;29;20010;-74
2022/03/09 10:56:21;;;;;;;9.27;6.18;;;9.00;42.00;;;;;;4933989;29;20031;-74
2022/03/09 10:58:48;;;;;;;14.50;6.32;;;8.80;42.10;;;;;;4933668;29;20043;-74
2022/03/09 11:01:19;;;;;;;10.27;5.53;;;8.90;43.00;;;;;;4934591;29;20042;-74
2022/03/09 11:03:46;;;;;;;8.75;7.15;;;9.10;42.80;;;;;;4942092;29;20035;-73
2022/03/09 11:06:14;;;;;;;13.35;7.65;;;9.20;41.90;;;;;;4939785;29;20044;-74
2022/03/09 11:08:44;;;;;;;10.07;7.30;;;9.40;41.60;;;;;;4933578;29;20048;-74
2022/03/09 11:11:14;;;;;;;;;;;9.60;41.30;;;;;;4931258;29;20052;-76
2022/03/09 11:13:40;;;;;;;14.05;6.10;;;9.80;41.20;;;;;;4918771;29;19910;-78
2022/03/09 11:16:08;;;;;;;12.52;6.35;;;9.70;40.80;;;;;;4932258;29;20028;-79
2022/03/09 11:18:35;;;;;;;11.02;6.40;;;9.60;41.30;;;;;;4936624;29;20035;-78
2022/03/09 11:21:07;;;;;;;17.75;6.45;;;9.50;41.20;;;;;;4935829;29;20038;-79
2022/03/09 11:23:38;;;;;;;16.45;7.93;;;9.50;41.50;;;;;;4915895;29;20048;-78
2022/03/09 11:26:10;;;;;;;9.25;6.20;;;9.60;41.40;;;;;;4936540;29;20043;-80
2022/03/09 11:28:41;;;;;;;13.55;7.57;;;9.90;41.10;;;;;;4922445;29;20036;-77
2022/03/09 11:31:13;;;;;;;11.23;7.47;;;9.70;41.40;;;;;;4933817;29;20036;-79
2022/03/09 11:33:56;;;;;;;10.05;7.00;;;9.80;40.80;;;;;;4933462;29;20043;-78
2022/03/09 11:36:23;;;;;;;9.93;6.82;;;9.70;40.90;;;;;;4926421;29;20031;-79
2022/03/09 11:38:52;;;;;;;10.88;7.03;;;10.00;40.80;;;;;;4933716;29;20034;-79
2022/03/09 11:41:21;;;;;;;9.95;6.90;;;10.10;40.30;;;;;;4915702;29;20120;-80
2022/03/09 11:43:48;;;;;;;10.82;7.20;;;10.20;40.20;;;;;;4935606;29;20047;-76
2022/03/09 11:46:16;;;;;;;10.13;6.55;;;9.80;39.90;;;;;;4923148;29;20044;-77
2022/03/09 11:48:57;;;;;;;7.40;6.15;;;9.80;38.90;;;;;;4940387;29;20035;-78
2022/03/09 11:51:28;;;;;;;8.77;6.25;;;10.10;38.60;;;;;;4938396;29;20035;-78
2022/03/09 11:53:59;;;;;;;10.05;6.45;;;10.20;38.80;;;;;;4943848;29;20032;-79
2022/03/09 11:56:32;;;;;;;9.18;6.85;;;10.40;39.30;;;;;;4944812;29;20031;-79
2022/03/09 11:59:13;;;;;;;8.10;6.70;;;10.30;39.70;;;;;;4944649;29;20028;-78
2022/03/09 12:01:58;;;;;;;10.05;7.25;;;10.60;39.70;;;;;;4940172;29;20035;-79
2022/03/09 12:04:39;;;;;;;9.55;6.90;;;10.40;39.40;;;;;;4925139;29;20059;-79
2022/03/09 12:07:07;;;;;;;9.15;6.90;;;10.50;40.10;;;;;;4922089;29;20052;-78
2022/03/09 12:09:54;;;;;;;7.68;6.88;;;10.80;39.40;;;;;;4905192;29;20474;-77
2022/03/09 12:12:20;;;;;;;8.40;7.07;;;10.70;39.70;;;;;;4917421;29;20039;-77
2022/03/09 12:15:06;;;;;;;10.52;6.95;;;10.50;39.10;;;;;;4904925;29;20044;-78
2022/03/09 12:17:47;;;;;;;8.65;6.45;;;10.80;39.30;;;;;;4904763;29;20037;-78
2022/03/09 12:20:32;;;;;;;13.85;6.63;;;10.90;38.60;;;;;;4912889;29;20044;-81
2022/03/09 12:23:01;;;;;;;10.80;7.28;;;11.10;39.00;;;;;;4903962;29;20033;-77
2022/03/09 12:25:44;;;;;;;7.57;5.63;;;10.70;38.00;;;;;;4921015;29;20029;-77
2022/03/09 12:28:23;;;;;;;10.27;6.72;;;10.60;38.00;;;;;;4904483;29;20462;-84
2022/03/09 12:30:53;;;;;;;14.80;5.82;;;10.80;37.60;;;;;;4920718;29;20056;-78
2022/03/09 12:33:27;;;;;;;7.78;6.47;;;10.90;37.90;;;;;;4906803;29;20394;-77
2022/03/09 12:36:12;;;;;;;9.43;6.88;;;11.10;37.30;;;;;;4899003;29;20033;-79
2022/03/09 12:38:54;;;;;;;8.68;7.00;;;11.30;37.70;;;;;;4920137;29;20044;-79
2022/03/09 12:41:37;;;;;;;8.95;6.97;;;11.30;38.00;;;;;;4905633;29;20041;-79
2022/03/09 12:44:08;;;;;;;9.20;6.60;;;11.50;37.80;;;;;;4902354;29;20063;-79
2022/03/09 12:46:36;;;;;;;8.02;6.05;;;11.50;37.00;;;;;;4897659;29;20041;-78
2022/03/09 12:49:07;;;;;;;7.85;5.95;;;11.60;35.70;;;;;;4903719;29;20032;-77
2022/03/09 12:51:34;;;;;;;6.93;6.15;;;11.50;36.00;;;;;;4903112;29;20060;-77
2022/03/09 12:54:01;;;;;;;8.30;6.45;;;11.70;35.40;;;;;;4903850;29;20488;-79
2022/03/09 12:56:29;;;;;;;6.82;6.13;;;11.30;34.80;;;;;;4904446;29;20032;-77